createdAt,value
2017-10-24T00:01:00.252Z,7.00
2017-10-24T00:03:26.867Z,6.90
2017-10-24T00:05:53.479Z,7.60
2017-10-24T00:08:20.100Z,6.93
2017-10-24T00:10:46.733Z,5.63
2017-10-24T00:13:13.362Z,6.30
2017-10-24T00:15:39.968Z,6.33
2017-10-24T00:18:06.604Z,5.87
2017-10-24T00:20:33.221Z,6.60
2017-10-24T00:22:59.892Z,7.90
2017-10-24T00:25:26.529Z,7.50
2017-10-24T00:27:53.167Z,8.50
2017-10-24T00:30:19.786Z,8.63
2017-10-24T00:32:46.426Z,9.93
2017-10-24T00:35:13.059Z,10.53
2017-10-24T00:37:39.701Z,9.80
2017-10-24T00:40:06.347Z,10.27
2017-10-24T00:42:33.274Z,10.10
2017-10-24T00:44:59.886Z,11.80
2017-10-24T00:47:27.748Z,11.33
2017-10-24T00:49:54.363Z,12.07
2017-10-24T00:52:21.007Z,12.53
2017-10-24T00:54:47.627Z,12.00
2017-10-24T00:57:14.274Z,13.43
2017-10-24T00:59:41.894Z,12.77
2017-10-24T01:02:08.552Z,11.97
2017-10-24T01:04:35.182Z,13.17
2017-10-24T01:07:01.798Z,12.00
2017-10-24T01:09:28.444Z,12.47
2017-10-24T01:11:55.077Z,11.20
2017-10-24T01:14:21.706Z,13.47
2017-10-24T01:16:48.329Z,12.27
2017-10-24T01:19:14.949Z,11.10
2017-10-24T01:21:41.597Z,13.63
2017-10-24T01:24:08.245Z,11.93
2017-10-24T01:26:34.883Z,13.27
2017-10-24T01:29:01.495Z,13.27
2017-10-24T01:31:28.157Z,11.60
2017-10-24T01:33:54.787Z,11.00
2017-10-24T01:36:21.404Z,10.90
2017-10-24T01:38:48.066Z,11.27
2017-10-24T01:41:14.686Z,11.63
2017-10-24T01:43:41.325Z,11.77
2017-10-24T01:46:07.971Z,13.73
2017-10-24T01:48:34.586Z,11.80
2017-10-24T01:51:01.232Z,12.90
2017-10-24T01:53:27.857Z,11.20
2017-10-24T01:55:54.478Z,11.33
2017-10-24T01:58:21.107Z,10.10
2017-10-24T02:00:48.355Z,11.27
2017-10-24T02:03:14.987Z,12.97
2017-10-24T02:05:41.633Z,10.10
2017-10-24T02:08:08.282Z,10.40
2017-10-24T02:10:35.252Z,10.77
2017-10-24T02:13:01.935Z,12.90
2017-10-24T02:15:28.566Z,10.13
2017-10-24T02:17:55.223Z,11.47
2017-10-24T02:20:21.881Z,10.83
2017-10-24T02:22:48.501Z,11.20
2017-10-24T02:25:15.156Z,11.97
2017-10-24T02:27:41.779Z,12.50
2017-10-24T02:30:08.413Z,12.20
2017-10-24T02:32:35.060Z,10.83
2017-10-24T02:35:01.693Z,10.80
2017-10-24T02:37:28.586Z,10.47
2017-10-24T02:39:55.235Z,11.37
2017-10-24T02:42:21.848Z,11.80
2017-10-24T02:44:48.500Z,11.43
2017-10-24T02:47:15.126Z,11.57
2017-10-24T02:49:41.771Z,11.37
2017-10-24T02:52:08.405Z,10.90
2017-10-24T02:54:35.019Z,11.67
2017-10-24T02:57:01.648Z,12.60
2017-10-24T02:59:29.197Z,10.77
2017-10-24T03:01:55.846Z,11.60
2017-10-24T03:04:22.469Z,10.03
2017-10-24T03:06:49.098Z,12.60
2017-10-24T03:09:15.762Z,10.93
2017-10-24T03:11:42.370Z,10.90
2017-10-24T03:14:09.002Z,10.27
2017-10-24T03:16:35.635Z,10.53
2017-10-24T03:19:02.266Z,11.17
2017-10-24T03:21:28.911Z,10.87
2017-10-24T03:23:55.536Z,11.20
2017-10-24T03:26:22.183Z,10.10
2017-10-24T03:28:48.827Z,10.87
2017-10-24T03:31:15.453Z,9.40
2017-10-24T03:33:42.187Z,9.30
2017-10-24T03:36:08.890Z,9.70
2017-10-24T03:38:35.531Z,8.97
2017-10-24T03:41:02.168Z,9.90
2017-10-24T03:43:28.998Z,9.70
2017-10-24T03:45:55.826Z,9.80
2017-10-24T03:48:22.448Z,10.43
2017-10-24T03:50:49.168Z,9.63
2017-10-24T03:53:15.770Z,9.50
2017-10-24T03:55:42.417Z,11.03
2017-10-24T03:58:09.060Z,10.87
2017-10-24T04:00:35.690Z,11.40
2017-10-24T04:03:02.336Z,9.20
2017-10-24T04:05:29.060Z,10.20
2017-10-24T04:07:55.679Z,9.50
2017-10-24T04:10:22.319Z,11.00
2017-10-24T04:12:48.935Z,12.30
2017-10-24T04:15:15.614Z,11.70
2017-10-24T04:17:42.313Z,11.30
2017-10-24T04:20:08.947Z,11.40
2017-10-24T04:22:35.618Z,11.93
2017-10-24T04:25:02.253Z,11.10
2017-10-24T04:27:28.882Z,10.60
2017-10-24T04:29:55.511Z,12.57
2017-10-24T04:32:22.145Z,11.30
2017-10-24T04:34:48.757Z,10.43
2017-10-24T04:37:15.399Z,10.87
2017-10-24T04:39:42.018Z,10.10
2017-10-24T04:42:08.640Z,10.00
2017-10-24T04:44:35.271Z,10.57
2017-10-24T04:47:01.932Z,10.53
2017-10-24T04:49:28.548Z,10.67
2017-10-24T04:51:55.184Z,10.90
2017-10-24T04:54:21.809Z,8.83
2017-10-24T04:56:48.428Z,9.40
2017-10-24T04:59:15.045Z,10.30
2017-10-24T05:01:41.666Z,10.27
2017-10-24T05:04:08.290Z,10.57
2017-10-24T05:06:34.894Z,12.00
2017-10-24T05:09:01.553Z,10.63
2017-10-24T05:11:28.194Z,10.67
2017-10-24T05:13:54.838Z,12.77
2017-10-24T05:16:21.478Z,11.77
2017-10-24T05:18:48.131Z,11.20
2017-10-24T05:21:14.755Z,12.03
2017-10-24T05:23:41.379Z,14.00
2017-10-24T05:26:08.089Z,13.57
2017-10-24T05:28:34.724Z,12.13
2017-10-24T05:31:01.355Z,13.03
2017-10-24T05:33:27.982Z,12.93
2017-10-24T05:35:54.657Z,12.77
2017-10-24T05:38:21.286Z,13.70
2017-10-24T05:40:47.907Z,11.63
2017-10-24T05:43:14.543Z,13.17
2017-10-24T05:45:41.156Z,14.03
2017-10-24T05:48:07.817Z,11.07
2017-10-24T05:50:35.332Z,11.60
2017-10-24T05:53:01.951Z,11.30
2017-10-24T05:55:28.584Z,10.37
2017-10-24T05:57:55.210Z,11.67
2017-10-24T06:00:21.870Z,9.93
2017-10-24T06:02:48.491Z,10.47
2017-10-24T06:05:15.125Z,9.50
2017-10-24T06:07:41.766Z,10.60
2017-10-24T06:10:08.390Z,10.37
2017-10-24T06:12:35.034Z,9.47
2017-10-24T06:15:01.651Z,8.17
2017-10-24T06:17:28.299Z,10.70
2017-10-24T06:19:54.920Z,10.23
2017-10-24T06:22:21.569Z,11.20
2017-10-24T06:24:48.223Z,9.77
2017-10-24T06:27:14.866Z,10.63
2017-10-24T06:29:41.478Z,9.30
2017-10-24T06:32:08.118Z,9.70
2017-10-24T06:34:34.738Z,9.87
2017-10-24T06:37:01.392Z,9.80
2017-10-24T06:39:28.034Z,10.97
2017-10-24T06:41:54.662Z,9.20
2017-10-24T06:44:21.306Z,10.07
2017-10-24T06:46:47.911Z,9.80
2017-10-24T06:49:14.538Z,10.37
2017-10-24T06:51:41.184Z,7.87
2017-10-24T06:54:07.803Z,8.50
2017-10-24T06:56:34.429Z,7.20
2017-10-24T06:59:01.036Z,8.67
2017-10-24T07:01:27.683Z,8.30
2017-10-24T07:03:54.333Z,10.20
2017-10-24T07:06:20.946Z,7.63
2017-10-24T07:08:47.591Z,8.63
2017-10-24T07:11:14.936Z,8.60
2017-10-24T07:13:41.552Z,9.20
2017-10-24T07:16:08.207Z,7.63
2017-10-24T07:18:34.838Z,9.03
2017-10-24T07:21:01.441Z,9.17
2017-10-24T07:23:28.075Z,8.50
2017-10-24T07:25:54.700Z,9.70
2017-10-24T07:28:21.358Z,8.53
2017-10-24T07:30:47.969Z,8.77
2017-10-24T07:33:14.604Z,7.40
2017-10-24T07:35:41.703Z,8.07
2017-10-24T07:38:08.334Z,7.97
2017-10-24T07:40:35.778Z,6.90
2017-10-24T07:43:02.371Z,6.40
2017-10-24T07:45:29.022Z,8.20
2017-10-24T07:47:55.668Z,7.80
2017-10-24T07:50:22.272Z,7.70
2017-10-24T07:52:48.902Z,7.20
2017-10-24T07:55:15.511Z,7.43
2017-10-24T07:57:42.136Z,6.80
2017-10-24T08:00:08.783Z,6.80
2017-10-24T08:02:35.417Z,9.13
2017-10-24T08:05:02.073Z,6.63
2017-10-24T08:07:28.667Z,6.40
2017-10-24T08:09:55.311Z,6.87
2017-10-24T08:12:21.942Z,6.53
2017-10-24T08:14:48.571Z,6.70
2017-10-24T08:17:15.191Z,7.17
2017-10-24T08:19:41.804Z,7.27
2017-10-24T08:22:08.446Z,5.93
2017-10-24T08:24:35.050Z,6.57
2017-10-24T08:27:01.687Z,6.50
2017-10-24T08:29:28.321Z,4.77
2017-10-24T08:31:54.930Z,6.17
2017-10-24T08:34:21.559Z,6.07
2017-10-24T08:36:48.158Z,5.23
2017-10-24T08:39:14.788Z,6.13
2017-10-24T08:41:41.395Z,5.70
2017-10-24T08:44:08.031Z,7.10
2017-10-24T08:46:34.659Z,6.47
2017-10-24T08:49:01.288Z,6.03
2017-10-24T08:51:27.914Z,6.03
2017-10-24T08:53:54.526Z,6.40
2017-10-24T08:56:21.175Z,6.27
2017-10-24T08:58:47.820Z,5.83
2017-10-24T09:01:27.780Z,4.87
2017-10-24T09:03:54.394Z,5.67
2017-10-24T09:06:33.865Z,4.47
2017-10-24T09:09:06.290Z,4.50
2017-10-24T09:11:41.531Z,4.93
2017-10-24T09:14:14.853Z,3.70
2017-10-24T09:16:49.373Z,4.30
2017-10-24T09:19:21.830Z,3.73
2017-10-24T09:21:48.485Z,2.83
2017-10-24T09:24:16.330Z,3.67
2017-10-24T09:26:42.952Z,4.07
2017-10-24T09:29:09.607Z,4.20
2017-10-24T09:31:36.907Z,3.53
2017-10-24T09:34:03.503Z,4.00
2017-10-24T09:36:30.123Z,4.73
2017-10-24T09:38:56.740Z,3.53
2017-10-24T09:41:23.386Z,4.00
2017-10-24T09:43:50.055Z,4.13
2017-10-24T09:46:17.490Z,3.80
2017-10-24T09:48:44.117Z,3.83
2017-10-24T09:51:16.436Z,3.33
2017-10-24T09:53:43.084Z,3.50
2017-10-24T09:56:10.423Z,3.53
2017-10-24T09:58:37.063Z,3.90
2017-10-24T10:01:15.282Z,3.00
2017-10-24T10:03:41.938Z,2.93
2017-10-24T10:06:23.463Z,2.43
2017-10-24T10:08:50.075Z,2.50
2017-10-24T10:11:22.450Z,2.67
2017-10-24T10:13:49.081Z,2.07
2017-10-24T10:16:15.711Z,2.63
2017-10-24T10:18:43.165Z,2.40
2017-10-24T10:21:09.792Z,2.43
2017-10-24T10:23:36.812Z,1.50
2017-10-24T10:26:03.415Z,2.30
2017-10-24T10:28:30.056Z,1.70
2017-10-24T10:30:56.675Z,2.37
2017-10-24T10:33:23.314Z,1.83
2017-10-24T10:35:50.532Z,2.40
2017-10-24T10:38:17.145Z,1.70
2017-10-24T10:40:43.781Z,2.63
2017-10-24T10:43:10.399Z,1.93
2017-10-24T10:45:37.021Z,2.50
2017-10-24T10:48:03.638Z,1.73
2017-10-24T10:50:30.276Z,1.60
2017-10-24T10:52:56.910Z,2.43
2017-10-24T10:55:23.531Z,1.60
2017-10-24T10:57:50.171Z,1.93
2017-10-24T11:00:16.806Z,1.50
2017-10-24T11:02:43.450Z,1.87
2017-10-24T11:05:10.071Z,2.40
2017-10-24T11:07:36.681Z,2.60
2017-10-24T11:10:03.319Z,2.13
2017-10-24T11:12:29.932Z,2.37
2017-10-24T11:14:56.568Z,2.20
2017-10-24T11:17:23.195Z,1.73
2017-10-24T11:19:49.838Z,1.90
2017-10-24T11:22:17.251Z,2.70
2017-10-24T11:24:43.897Z,1.73
2017-10-24T11:27:10.537Z,2.60
2017-10-24T11:29:37.276Z,1.97
2017-10-24T11:32:03.900Z,1.50
2017-10-24T11:34:30.520Z,2.00
2017-10-24T11:36:57.187Z,1.73
2017-10-24T11:39:23.796Z,1.57
2017-10-24T11:41:50.428Z,2.03
2017-10-24T11:44:17.082Z,1.60
2017-10-24T11:46:44.585Z,1.73
2017-10-24T11:49:11.242Z,1.33
2017-10-24T11:51:37.864Z,1.53
2017-10-24T11:54:04.487Z,1.57
2017-10-24T11:56:31.143Z,1.70
2017-10-24T11:58:57.758Z,1.63
2017-10-24T12:01:24.399Z,1.37
2017-10-24T12:03:51.011Z,1.33
2017-10-24T12:06:17.660Z,1.70
2017-10-24T12:08:44.276Z,2.70
2017-10-24T12:11:10.888Z,2.83
2017-10-24T12:13:37.522Z,1.40
2017-10-24T12:16:04.132Z,1.30
2017-10-24T12:18:30.767Z,1.23
2017-10-24T12:20:57.384Z,1.40
2017-10-24T12:23:24.059Z,1.20
2017-10-24T12:25:50.700Z,1.00
2017-10-24T12:28:17.309Z,1.47
2017-10-24T12:30:44.018Z,0.90
2017-10-24T12:33:10.619Z,1.40
2017-10-24T12:35:37.236Z,1.93
2017-10-24T12:38:03.851Z,0.67
2017-10-24T12:40:30.506Z,0.70
2017-10-24T12:42:57.135Z,1.37
2017-10-24T12:45:26.260Z,1.20
2017-10-24T12:47:52.899Z,1.60
2017-10-24T12:50:19.546Z,1.17
2017-10-24T12:52:46.158Z,1.30
2017-10-24T12:55:12.783Z,1.40
2017-10-24T12:57:41.928Z,1.03
2017-10-24T13:00:10.416Z,1.03
2017-10-24T13:02:37.055Z,1.13
2017-10-24T13:05:04.434Z,1.23
2017-10-24T13:07:31.066Z,1.27
2017-10-24T13:09:57.663Z,1.40
2017-10-24T13:12:24.316Z,1.27
2017-10-24T13:14:50.962Z,1.63
2017-10-24T13:17:17.589Z,2.03
2017-10-24T13:19:44.211Z,1.23
2017-10-24T13:22:10.865Z,1.30
2017-10-24T13:24:37.455Z,1.23
2017-10-24T13:27:04.095Z,1.10
2017-10-24T13:29:30.723Z,1.77
2017-10-24T13:31:57.365Z,1.90
2017-10-24T13:34:24.004Z,1.70
2017-10-24T13:36:50.630Z,1.63
2017-10-24T13:39:17.247Z,1.30
2017-10-24T13:41:43.891Z,1.40
2017-10-24T13:44:10.503Z,2.33
2017-10-24T13:46:37.206Z,1.70
2017-10-24T13:49:03.839Z,1.20
2017-10-24T13:51:30.466Z,1.87
2017-10-24T13:53:57.094Z,1.27
2017-10-24T13:56:23.707Z,1.50
2017-10-24T13:58:50.332Z,1.73
2017-10-24T14:01:16.948Z,3.10
2017-10-24T14:03:43.597Z,1.70
2017-10-24T14:06:15.917Z,1.80
2017-10-24T14:08:48.247Z,2.50
2017-10-24T14:11:15.232Z,1.80
2017-10-24T14:13:41.891Z,2.30
2017-10-24T14:16:08.531Z,1.93
2017-10-24T14:18:35.146Z,2.23
2017-10-24T14:21:01.762Z,1.93
2017-10-24T14:23:28.374Z,3.00
2017-10-24T14:25:55.012Z,1.90
2017-10-24T14:28:21.637Z,2.30
2017-10-24T14:30:48.272Z,2.57
2017-10-24T14:33:14.900Z,2.07
2017-10-24T14:35:41.540Z,2.60
2017-10-24T14:38:08.194Z,2.63
2017-10-24T14:40:34.817Z,2.40
2017-10-24T14:43:01.434Z,3.20
2017-10-24T14:45:28.077Z,2.37
2017-10-24T14:47:54.701Z,2.50
2017-10-24T14:50:21.340Z,2.50
2017-10-24T14:52:47.970Z,2.10
2017-10-24T14:55:14.580Z,2.67
2017-10-24T14:57:42.040Z,2.23
2017-10-24T15:00:08.660Z,2.37
2017-10-24T15:02:35.311Z,2.53
2017-10-24T15:05:01.951Z,2.77
2017-10-24T15:07:28.902Z,3.50
2017-10-24T15:09:55.529Z,2.80
2017-10-24T15:12:22.129Z,2.43
2017-10-24T15:14:48.786Z,3.50
2017-10-24T15:17:15.580Z,2.30
2017-10-24T15:19:42.231Z,2.80
2017-10-24T15:22:08.862Z,3.20
2017-10-24T15:24:35.540Z,3.33
2017-10-24T15:27:02.387Z,2.87
2017-10-24T15:29:29.009Z,3.80
2017-10-24T15:31:55.627Z,3.60
2017-10-24T15:34:22.247Z,4.10
2017-10-24T15:36:48.850Z,3.50
2017-10-24T15:39:15.503Z,3.83
2017-10-24T15:41:42.110Z,4.97
2017-10-24T15:44:08.779Z,4.60
2017-10-24T15:46:35.503Z,4.77
2017-10-24T15:49:02.137Z,3.97
2017-10-24T15:51:28.816Z,4.43
2017-10-24T15:53:55.449Z,4.83
2017-10-24T15:56:22.089Z,3.97
2017-10-24T15:58:48.766Z,4.40
2017-10-24T16:01:15.401Z,3.40
2017-10-24T16:03:42.019Z,4.80
2017-10-24T16:06:08.641Z,4.37
2017-10-24T16:08:35.274Z,4.37
2017-10-24T16:11:01.890Z,3.77
2017-10-24T16:13:28.508Z,4.10
2017-10-24T16:15:55.154Z,4.80
2017-10-24T16:18:21.860Z,4.13
2017-10-24T16:20:48.489Z,3.90
2017-10-24T16:23:15.104Z,4.40
2017-10-24T16:25:41.727Z,4.80
2017-10-24T16:28:08.373Z,4.77
2017-10-24T16:30:34.986Z,5.40
2017-10-24T16:33:01.619Z,4.23
2017-10-24T16:35:28.261Z,4.57
2017-10-24T16:37:54.910Z,4.47
2017-10-24T16:40:21.552Z,4.70
2017-10-24T16:42:48.187Z,4.50
2017-10-24T16:45:14.818Z,4.70
2017-10-24T16:47:41.456Z,4.07
2017-10-24T16:50:08.929Z,3.60
2017-10-24T16:52:35.569Z,4.27
2017-10-24T16:55:02.192Z,4.20
2017-10-24T16:57:28.858Z,3.60
2017-10-24T16:59:55.448Z,3.27
2017-10-24T17:02:22.080Z,3.90
2017-10-24T17:04:48.757Z,4.40
2017-10-24T17:07:15.378Z,3.93
2017-10-24T17:09:42.050Z,3.37
2017-10-24T17:12:08.682Z,4.07
2017-10-24T17:14:35.306Z,4.70
2017-10-24T17:17:01.928Z,4.37
2017-10-24T17:19:29.340Z,4.70
2017-10-24T17:21:55.984Z,4.30
2017-10-24T17:24:22.619Z,4.70
2017-10-24T17:26:49.239Z,5.43
2017-10-24T17:29:15.900Z,5.20
2017-10-24T17:31:42.524Z,4.57
2017-10-24T17:34:09.151Z,4.30
2017-10-24T17:36:35.783Z,4.90
2017-10-24T17:39:02.420Z,5.47
2017-10-24T17:41:30.827Z,4.73
2017-10-24T17:43:57.446Z,4.80
2017-10-24T17:46:24.103Z,6.60
2017-10-24T17:48:50.745Z,5.90
2017-10-24T17:51:17.396Z,5.03
2017-10-24T17:53:44.029Z,5.63
2017-10-24T17:56:10.645Z,5.53
2017-10-24T17:58:37.344Z,5.90
2017-10-24T18:01:04.002Z,6.13
2017-10-24T18:03:30.660Z,6.80
2017-10-24T18:05:57.305Z,6.67
2017-10-24T18:08:23.948Z,7.30
2017-10-24T18:10:50.574Z,7.20
2017-10-24T18:13:17.174Z,8.00
2017-10-24T18:15:43.809Z,8.10
2017-10-24T18:18:10.960Z,8.47
2017-10-24T18:20:37.603Z,8.17
2017-10-24T18:23:04.221Z,7.17
2017-10-24T18:25:30.835Z,7.17
2017-10-24T18:27:57.499Z,7.30
2017-10-24T18:30:24.852Z,8.30
2017-10-24T18:32:51.489Z,6.97
2017-10-24T18:35:18.120Z,7.40
2017-10-24T18:37:44.749Z,7.23
2017-10-24T18:40:11.434Z,6.33
2017-10-24T18:42:38.044Z,6.60
2017-10-24T18:45:04.757Z,7.77
2017-10-24T18:47:31.412Z,7.20
2017-10-24T18:49:58.037Z,6.70
2017-10-24T18:52:24.694Z,6.10
2017-10-24T18:54:51.300Z,8.20
2017-10-24T18:57:17.948Z,7.60
2017-10-24T18:59:44.561Z,7.60
2017-10-24T19:02:12.079Z,8.30
2017-10-24T19:04:38.720Z,7.10
2017-10-24T19:07:05.464Z,7.77
2017-10-24T19:09:32.138Z,7.63
2017-10-24T19:11:58.761Z,7.07
2017-10-24T19:14:25.391Z,8.37
2017-10-24T19:16:52.054Z,8.80
2017-10-24T19:19:18.679Z,8.70
2017-10-24T19:21:45.304Z,8.87
2017-10-24T19:24:11.966Z,9.40
2017-10-24T19:26:38.619Z,9.73
2017-10-24T19:29:05.916Z,9.20
2017-10-24T19:31:32.535Z,9.30
2017-10-24T19:33:59.266Z,10.40
2017-10-24T19:36:25.898Z,9.73
2017-10-24T19:38:52.552Z,9.00
2017-10-24T19:41:19.232Z,8.93
2017-10-24T19:43:45.872Z,9.80
2017-10-24T19:46:12.506Z,8.90
2017-10-24T19:48:39.165Z,8.80
2017-10-24T19:51:05.804Z,9.53
2017-10-24T19:53:32.440Z,8.67
2017-10-24T19:55:59.069Z,8.57
2017-10-24T19:58:25.692Z,8.83
2017-10-24T20:00:52.359Z,9.17
2017-10-24T20:03:18.978Z,8.80
2017-10-24T20:05:45.624Z,8.80
2017-10-24T20:08:12.232Z,8.60
2017-10-24T20:10:38.856Z,8.20
2017-10-24T20:13:05.522Z,7.53
2017-10-24T20:15:32.142Z,8.00
2017-10-24T20:17:58.796Z,7.90
2017-10-24T20:20:25.412Z,7.97
2017-10-24T20:22:52.052Z,7.50
2017-10-24T20:25:18.708Z,7.10
2017-10-24T20:27:45.323Z,8.40
2017-10-24T20:30:12.487Z,7.83
2017-10-24T20:32:39.112Z,7.53
2017-10-24T20:35:05.733Z,7.60
2017-10-24T20:37:32.369Z,7.80
2017-10-24T20:39:59.015Z,8.00
2017-10-24T20:42:25.665Z,7.80
2017-10-24T20:44:52.281Z,7.97
2017-10-24T20:47:18.919Z,8.10
2017-10-24T20:49:45.514Z,7.80
2017-10-24T20:52:12.152Z,6.50
2017-10-24T20:54:38.760Z,7.10
2017-10-24T20:57:05.391Z,8.17
2017-10-24T20:59:32.015Z,7.20
2017-10-24T21:01:58.643Z,7.50
2017-10-24T21:04:27.332Z,7.07
2017-10-24T21:06:53.952Z,6.73
2017-10-24T21:09:20.567Z,6.70
2017-10-24T21:11:47.242Z,6.97
2017-10-24T21:14:13.869Z,7.37
2017-10-24T21:16:40.503Z,7.63
2017-10-24T21:19:07.148Z,7.17
2017-10-24T21:21:33.778Z,7.50
2017-10-24T21:24:00.418Z,7.80
2017-10-24T21:26:27.889Z,7.63
2017-10-24T21:28:54.544Z,8.53
2017-10-24T21:31:21.160Z,8.03
2017-10-24T21:33:47.825Z,6.93
2017-10-24T21:36:14.428Z,7.20
2017-10-24T21:38:41.068Z,8.33
2017-10-24T21:41:07.714Z,8.50
2017-10-24T21:43:35.031Z,6.80
2017-10-24T21:46:01.675Z,8.33
2017-10-24T21:48:28.315Z,8.03
2017-10-24T21:50:54.939Z,7.90
2017-10-24T21:53:21.596Z,8.60
2017-10-24T21:55:48.203Z,8.40
2017-10-24T21:58:14.859Z,8.20
2017-10-24T22:00:47.409Z,8.73
2017-10-24T22:03:14.059Z,7.50
2017-10-24T22:05:40.712Z,8.67
2017-10-24T22:08:07.365Z,8.47
2017-10-24T22:10:33.999Z,8.10
2017-10-24T22:13:00.638Z,9.67
2017-10-24T22:15:27.310Z,8.23
2017-10-24T22:17:53.919Z,9.10
2017-10-24T22:20:20.557Z,8.10
2017-10-24T22:22:47.209Z,9.00
2017-10-24T22:25:13.848Z,7.40
2017-10-24T22:27:40.481Z,9.13
2017-10-24T22:30:07.099Z,9.40
2017-10-24T22:32:33.735Z,9.80
2017-10-24T22:35:01.069Z,9.17
2017-10-24T22:37:27.703Z,8.33
2017-10-24T22:39:54.343Z,8.10
2017-10-24T22:42:20.989Z,10.40
2017-10-24T22:44:47.650Z,9.53
2017-10-24T22:47:14.341Z,9.57
2017-10-24T22:49:40.942Z,10.53
2017-10-24T22:52:07.579Z,10.20
2017-10-24T22:54:34.203Z,10.60
2017-10-24T22:57:00.849Z,9.73
2017-10-24T22:59:27.474Z,10.27
2017-10-24T23:01:54.118Z,11.67
2017-10-24T23:04:20.751Z,12.20
2017-10-24T23:06:47.404Z,10.00
2017-10-24T23:09:14.033Z,11.33
2017-10-24T23:11:40.690Z,10.83
2017-10-24T23:14:07.631Z,12.60
2017-10-24T23:16:34.267Z,12.77
2017-10-24T23:19:00.898Z,12.50
2017-10-24T23:21:27.524Z,13.63
2017-10-24T23:23:54.135Z,13.70
2017-10-24T23:26:20.753Z,15.10
2017-10-24T23:28:47.404Z,12.63
2017-10-24T23:31:14.024Z,13.00
2017-10-24T23:33:40.630Z,14.47
2017-10-24T23:36:07.286Z,13.80
2017-10-24T23:38:33.901Z,13.87
2017-10-24T23:41:00.556Z,14.50
2017-10-24T23:43:27.176Z,14.97
2017-10-24T23:45:53.819Z,17.40
2017-10-24T23:48:20.435Z,14.00
2017-10-24T23:50:47.075Z,15.03
2017-10-24T23:53:13.712Z,13.63
2017-10-24T23:55:40.334Z,15.03
2017-10-24T23:58:06.981Z,14.03
